createdAt,value
2024-04-17T00:00:27.106Z,59.40
2024-04-17T00:04:30.499Z,59.60
2024-04-17T00:08:33.475Z,59.60
2024-04-17T00:12:36.421Z,59.60
2024-04-17T00:16:39.439Z,59.50
2024-04-17T00:20:42.520Z,59.40
2024-04-17T00:24:45.533Z,59.50
2024-04-17T00:28:48.533Z,59.40
2024-04-17T00:32:52.589Z,59.40
2024-04-17T00:36:55.581Z,59.50
2024-04-17T00:40:58.534Z,59.50
2024-04-17T00:45:01.601Z,59.50
2024-04-17T00:49:05.182Z,59.40
2024-04-17T00:53:13.957Z,59.50
2024-04-17T00:57:16.981Z,59.40
2024-04-17T01:01:19.968Z,59.50
2024-04-17T01:05:22.918Z,59.40
2024-04-17T01:09:25.852Z,59.40
2024-04-17T01:13:29.444Z,59.40
2024-04-17T01:17:32.559Z,59.50
2024-04-17T01:21:36.556Z,59.50
2024-04-17T01:25:39.498Z,59.50
2024-04-17T01:29:42.440Z,59.60
2024-04-17T01:33:45.330Z,59.50
2024-04-17T01:37:48.466Z,59.60
2024-04-17T01:41:51.477Z,59.70
2024-04-17T01:45:54.558Z,59.70
2024-04-17T01:50:03.328Z,59.80
2024-04-17T01:54:06.572Z,59.90
2024-04-17T01:58:09.455Z,60.00
2024-04-17T02:02:12.452Z,60.10
2024-04-17T02:06:16.901Z,60.10
2024-04-17T02:10:20.156Z,60.20
2024-04-17T02:14:23.315Z,60.10
2024-04-17T02:18:26.247Z,60.20
2024-04-17T02:22:29.162Z,60.30
2024-04-17T02:26:32.124Z,60.30
2024-04-17T02:30:35.078Z,60.30
2024-04-17T02:34:38.069Z,60.20
2024-04-17T02:38:41.010Z,60.20
2024-04-17T02:42:43.950Z,60.20
2024-04-17T02:46:47.503Z,60.10
2024-04-17T02:50:50.479Z,60.00
2024-04-17T02:54:53.546Z,59.90
2024-04-17T02:58:56.515Z,59.90
2024-04-17T03:02:59.916Z,59.80
2024-04-17T03:07:02.963Z,59.80
2024-04-17T03:11:06.030Z,59.70
2024-04-17T03:15:09.255Z,59.70
2024-04-17T03:19:12.110Z,59.50
2024-04-17T03:23:15.066Z,59.50
2024-04-17T03:27:18.747Z,59.50
2024-04-17T03:31:21.729Z,59.60
2024-04-17T03:35:24.649Z,59.70
2024-04-17T03:39:27.537Z,59.70
2024-04-17T03:43:30.490Z,59.90
2024-04-17T03:47:33.632Z,60.00
2024-04-17T03:51:38.330Z,60.20
2024-04-17T03:55:41.293Z,60.20
2024-04-17T03:59:44.251Z,60.30
2024-04-17T04:03:47.362Z,60.40
2024-04-17T04:07:50.339Z,60.50
2024-04-17T04:11:54.402Z,60.60
2024-04-17T04:15:57.357Z,60.70
2024-04-17T04:20:00.301Z,60.80
2024-04-17T04:24:03.286Z,60.90
2024-04-17T04:28:06.326Z,61.10
2024-04-17T04:32:09.185Z,61.30
2024-04-17T04:36:12.157Z,61.40
2024-04-17T04:40:15.114Z,61.50
2024-04-17T04:44:18.024Z,61.80
2024-04-17T04:48:20.934Z,62.10
2024-04-17T04:52:23.821Z,62.40
2024-04-17T04:56:26.876Z,62.60
2024-04-17T05:00:29.711Z,62.60
2024-04-17T05:04:32.662Z,62.70
2024-04-17T05:08:35.644Z,62.60
2024-04-17T05:12:39.580Z,62.80
2024-04-17T05:16:42.610Z,62.90
2024-04-17T05:20:47.065Z,62.80
2024-04-17T05:24:50.035Z,62.80
2024-04-17T05:28:53.024Z,62.70
2024-04-17T05:32:56.222Z,62.70
2024-04-17T05:36:59.389Z,62.60
2024-04-17T05:41:02.270Z,62.40
2024-04-17T05:45:05.392Z,62.20
2024-04-17T05:49:08.675Z,62.10
2024-04-17T05:53:11.983Z,62.00
2024-04-17T05:57:14.974Z,61.80
2024-04-17T06:01:17.820Z,61.50
2024-04-17T06:05:20.742Z,61.10
2024-04-17T06:09:25.294Z,60.80
2024-04-17T06:13:28.118Z,60.50
2024-04-17T06:17:33.042Z,59.90
2024-04-17T06:21:35.908Z,59.40
2024-04-17T06:25:43.582Z,59.00
2024-04-17T06:29:46.533Z,58.80
2024-04-17T06:33:49.504Z,58.10
2024-04-17T06:37:52.476Z,57.50
2024-04-17T06:42:02.477Z,57.50
2024-04-17T06:46:06.282Z,57.50
2024-04-17T06:50:09.269Z,57.20
2024-04-17T06:54:12.151Z,57.00
2024-04-17T06:58:15.153Z,56.60
2024-04-17T07:02:18.170Z,56.80
2024-04-17T07:06:21.054Z,56.80
2024-04-17T07:10:24.104Z,56.50
2024-04-17T07:14:26.956Z,56.40
2024-04-17T07:18:30.084Z,56.60
2024-04-17T07:22:33.432Z,56.30
2024-04-17T07:26:36.399Z,56.10
2024-04-17T07:30:42.928Z,54.90
2024-04-17T07:34:46.072Z,54.40
2024-04-17T07:38:48.987Z,54.20
2024-04-17T07:42:53.367Z,54.10
2024-04-17T07:46:56.491Z,54.20
2024-04-17T07:50:59.436Z,54.00
2024-04-17T07:55:02.428Z,53.40
2024-04-17T07:59:05.366Z,53.30
2024-04-17T08:03:08.757Z,52.90
2024-04-17T08:07:11.707Z,51.70
2024-04-17T08:11:15.600Z,51.50
2024-04-17T08:15:22.124Z,51.60
2024-04-17T08:19:25.371Z,51.10
2024-04-17T08:23:31.688Z,49.30
2024-04-17T08:27:37.216Z,45.90
2024-04-17T08:31:40.088Z,46.30
2024-04-17T08:35:42.923Z,44.10
2024-04-17T08:39:45.760Z,44.00
2024-04-17T08:43:49.821Z,43.20
2024-04-17T08:47:53.620Z,42.40
2024-04-17T08:51:58.571Z,41.90
2024-04-17T08:56:01.549Z,40.30
2024-04-17T09:00:05.443Z,38.50
2024-04-17T09:04:08.474Z,38.50
2024-04-17T09:08:11.701Z,38.50
2024-04-17T09:12:16.103Z,38.20
2024-04-17T09:16:19.024Z,37.90
2024-04-17T09:20:22.228Z,36.10
2024-04-17T09:24:25.547Z,35.10
2024-04-17T09:28:28.590Z,35.60
2024-04-17T09:32:31.922Z,35.40
2024-04-17T09:36:34.911Z,36.00
2024-04-17T09:40:38.017Z,35.70
2024-04-17T09:44:43.590Z,36.10
2024-04-17T09:48:51.606Z,36.10
2024-04-17T09:52:58.718Z,35.80
2024-04-17T09:57:03.051Z,35.30
2024-04-17T10:01:09.690Z,34.80
2024-04-17T10:05:12.961Z,33.70
2024-04-17T10:09:15.936Z,35.10
2024-04-17T10:13:20.915Z,34.50
2024-04-17T10:17:30.861Z,34.00
2024-04-17T10:21:39.159Z,34.70
2024-04-17T10:25:57.644Z,34.70
2024-04-17T10:30:11.047Z,34.30
2024-04-17T10:34:14.422Z,33.30
2024-04-17T10:38:28.319Z,32.90
2024-04-17T10:42:38.138Z,32.90
2024-04-17T10:46:41.027Z,31.40
2024-04-17T10:50:44.341Z,31.50
2024-04-17T10:54:48.169Z,31.60
2024-04-17T10:58:51.224Z,32.10
2024-04-17T11:02:54.870Z,32.30
2024-04-17T11:06:57.858Z,32.70
2024-04-17T11:11:01.632Z,32.20
2024-04-17T11:15:05.653Z,32.30
2024-04-17T11:19:10.516Z,32.50
2024-04-17T11:23:13.532Z,32.40
2024-04-17T11:27:18.291Z,32.60
2024-04-17T11:31:21.439Z,33.20
2024-04-17T11:35:24.676Z,33.30
2024-04-17T11:39:27.543Z,33.70
2024-04-17T11:43:31.031Z,34.20
2024-04-17T11:47:34.028Z,34.90
2024-04-17T11:51:37.840Z,35.60
2024-04-17T11:55:41.289Z,36.20
2024-04-17T11:59:45.541Z,36.50
2024-04-17T12:03:48.571Z,36.70
2024-04-17T12:07:52.625Z,37.20
2024-04-17T12:11:56.187Z,37.80
2024-04-17T12:15:59.246Z,38.30
2024-04-17T12:20:02.664Z,38.80
2024-04-17T12:24:09.772Z,38.80
2024-04-17T12:28:12.778Z,39.10
2024-04-17T12:32:15.641Z,39.40
2024-04-17T12:36:18.718Z,39.30
2024-04-17T12:40:21.688Z,39.30
2024-04-17T12:44:24.625Z,39.30
2024-04-17T12:48:27.715Z,39.40
2024-04-17T12:52:34.047Z,39.20
2024-04-17T12:56:37.766Z,39.50
2024-04-17T13:00:40.791Z,39.80
2024-04-17T13:04:47.178Z,40.00
2024-04-17T13:08:50.239Z,40.50
2024-04-17T13:12:53.177Z,40.80
2024-04-17T13:16:56.146Z,41.20
2024-04-17T13:21:00.090Z,41.40
2024-04-17T13:25:03.752Z,41.70
2024-04-17T13:29:08.868Z,41.90
2024-04-17T13:33:11.949Z,42.30
2024-04-17T13:37:14.932Z,42.90
2024-04-17T13:41:18.538Z,44.20
2024-04-17T13:45:21.698Z,46.10
2024-04-17T13:49:24.827Z,47.50
2024-04-17T13:53:29.879Z,49.70
2024-04-17T13:57:33.018Z,52.90
2024-04-17T14:01:36.310Z,54.10
2024-04-17T14:05:39.780Z,53.60
2024-04-17T14:09:42.707Z,54.70
2024-04-17T14:13:45.660Z,56.00
2024-04-17T14:17:48.957Z,55.90
2024-04-17T14:21:51.822Z,56.20
2024-04-17T14:26:02.830Z,56.10
2024-04-17T14:30:06.645Z,56.30
2024-04-17T14:34:09.628Z,56.00
2024-04-17T14:38:12.621Z,55.70
2024-04-17T14:42:15.508Z,55.30
2024-04-17T14:46:18.480Z,54.90
2024-04-17T14:50:21.334Z,55.40
2024-04-17T14:54:24.327Z,54.70
2024-04-17T14:58:27.526Z,54.70
2024-04-17T15:02:30.522Z,55.00
2024-04-17T15:06:33.476Z,54.50
2024-04-17T15:10:36.461Z,54.10
2024-04-17T15:14:39.608Z,54.00
2024-04-17T15:18:43.071Z,53.70
2024-04-17T15:22:47.265Z,54.00
2024-04-17T15:26:51.454Z,54.10
2024-04-17T15:31:20.840Z,53.80
2024-04-17T15:35:23.963Z,53.70
2024-04-17T15:39:27.378Z,54.20
2024-04-17T15:43:35.046Z,54.50
2024-04-17T15:47:39.533Z,54.80
2024-04-17T15:51:43.871Z,54.40
2024-04-17T15:55:50.443Z,54.40
2024-04-17T15:59:54.015Z,54.50
2024-04-17T16:03:57.254Z,53.60
2024-04-17T16:08:00.156Z,53.10
2024-04-17T16:12:03.408Z,52.40
2024-04-17T16:16:10.509Z,51.70
2024-04-17T16:20:13.425Z,51.20
2024-04-17T16:24:18.386Z,50.20
2024-04-17T16:28:21.500Z,48.10
2024-04-17T16:32:24.485Z,47.30
2024-04-17T16:36:27.543Z,47.40
2024-04-17T16:40:33.378Z,46.80
2024-04-17T16:44:36.470Z,47.00
2024-04-17T16:48:41.016Z,46.50
2024-04-17T16:52:47.923Z,45.10
2024-04-17T16:56:50.900Z,45.40
2024-04-17T17:00:56.283Z,46.30
2024-04-17T17:04:59.280Z,46.80
2024-04-17T17:09:02.254Z,47.10
2024-04-17T17:13:05.280Z,47.00
2024-04-17T17:17:08.256Z,47.10
2024-04-17T17:21:13.608Z,47.00
2024-04-17T17:25:16.959Z,47.00
2024-04-17T17:29:19.951Z,46.00
2024-04-17T17:33:25.026Z,45.50
2024-04-17T17:37:28.069Z,45.80
2024-04-17T17:41:31.075Z,46.60
2024-04-17T17:45:33.996Z,47.40
2024-04-17T17:49:36.959Z,48.30
2024-04-17T17:53:41.477Z,49.10
2024-04-17T17:57:44.506Z,50.00
2024-04-17T18:01:47.680Z,50.70
2024-04-17T18:05:52.366Z,51.50
2024-04-17T18:09:55.238Z,52.10
2024-04-17T18:13:58.261Z,53.00
2024-04-17T18:18:01.706Z,53.60
2024-04-17T18:22:04.778Z,54.10
2024-04-17T18:26:11.744Z,54.20
2024-04-17T18:30:14.806Z,54.70
2024-04-17T18:34:17.754Z,55.10
2024-04-17T18:38:20.632Z,55.50
2024-04-17T18:42:23.719Z,55.80
2024-04-17T18:46:27.928Z,56.30
2024-04-17T18:50:33.984Z,56.50
2024-04-17T18:54:37.016Z,56.70
2024-04-17T18:58:41.048Z,56.70
2024-04-17T19:02:44.081Z,56.80
2024-04-17T19:06:51.537Z,56.80
2024-04-17T19:10:57.791Z,56.90
2024-04-17T19:15:01.889Z,56.90
2024-04-17T19:19:05.673Z,56.90
2024-04-17T19:23:08.587Z,56.80
2024-04-17T19:27:11.690Z,56.70
2024-04-17T19:31:15.047Z,56.60
2024-04-17T19:35:18.037Z,56.30
2024-04-17T19:39:21.069Z,55.90
2024-04-17T19:43:24.051Z,55.60
2024-04-17T19:47:27.048Z,55.30
2024-04-17T19:51:30.058Z,55.00
2024-04-17T19:55:37.013Z,54.70
2024-04-17T19:59:42.079Z,54.20
2024-04-17T20:03:45.446Z,54.00
2024-04-17T20:07:49.140Z,53.80
2024-04-17T20:11:52.211Z,53.60
2024-04-17T20:16:06.344Z,53.50
2024-04-17T20:20:16.236Z,53.30
2024-04-17T20:24:25.221Z,53.10
2024-04-17T20:28:53.543Z,53.00
2024-04-17T20:33:03.748Z,52.90
2024-04-17T20:37:06.726Z,52.90
2024-04-17T20:41:11.940Z,52.90
2024-04-17T20:45:17.449Z,53.00
2024-04-17T20:49:20.493Z,53.00
2024-04-17T20:53:23.473Z,53.20
2024-04-17T20:57:26.404Z,53.20
2024-04-17T21:01:32.678Z,53.30
2024-04-17T21:05:36.210Z,53.30
2024-04-17T21:09:42.370Z,53.30
2024-04-17T21:13:45.527Z,53.30
2024-04-17T21:17:50.028Z,53.30
2024-04-17T21:21:53.162Z,53.20
2024-04-17T21:25:56.183Z,53.10
2024-04-17T21:29:59.487Z,53.20
2024-04-17T21:34:02.759Z,53.30
2024-04-17T21:38:06.411Z,53.40
2024-04-17T21:42:09.517Z,53.50
2024-04-17T21:46:13.266Z,53.70
2024-04-17T21:50:16.239Z,53.80
2024-04-17T21:54:19.290Z,53.90
2024-04-17T21:58:22.724Z,54.20
2024-04-17T22:02:25.797Z,54.30
2024-04-17T22:06:28.780Z,54.50
2024-04-17T22:10:32.060Z,55.10
2024-04-17T22:14:35.541Z,55.40
2024-04-17T22:18:38.661Z,56.00
2024-04-17T22:22:41.995Z,56.10
2024-04-17T22:26:44.943Z,56.10
2024-04-17T22:30:48.067Z,56.10
2024-04-17T22:34:51.094Z,56.20
2024-04-17T22:38:54.131Z,56.40
2024-04-17T22:43:00.818Z,56.30
2024-04-17T22:47:07.215Z,56.20
2024-04-17T22:51:10.218Z,56.10
2024-04-17T22:55:13.371Z,55.90
2024-04-17T22:59:16.296Z,55.70
2024-04-17T23:03:19.373Z,55.50
2024-04-17T23:07:22.374Z,55.40
2024-04-17T23:11:25.496Z,55.30
2024-04-17T23:15:29.132Z,55.50
2024-04-17T23:19:32.166Z,55.50
2024-04-17T23:23:35.116Z,55.60
2024-04-17T23:27:38.338Z,55.70
2024-04-17T23:31:41.451Z,55.70
2024-04-17T23:35:45.394Z,55.70
2024-04-17T23:39:50.648Z,55.60
2024-04-17T23:43:53.852Z,55.50
2024-04-17T23:47:56.774Z,55.50
2024-04-17T23:52:00.302Z,55.60
2024-04-17T23:56:03.311Z,55.60
